CheckWX is a tool to help pilots better visualize weather data.  It is not intended as a substitute for an official pre-flight weather briefing.

18:09:57 UTC

LIRF TAF
Leonardo da Vinci–Fiumicino Airport
Rome, Italy
TAF LIRF 081700Z 0818/0924 VRB05KT 9999 FEW015 TEMPO 0823/0903 4000 BCFG BECMG 0908/0910 25012KT BECMG 0913/0915 31012KT BECMG 0919/0921 VRB05KT

Jul-8@
18:00 UTC

Jul-8 @ 18:00 UTC

Jul-9@
08:00 UTC

Jul-9 @ 08:00 UTC

TAF LIRF 081700Z 0818/0924 VRB05KT 9999 FEW015

Expired

Wind
  • Variable at 5 KTS
Cloud Levels
  • Few at 1,500' AGL

Jul-8@
23:00 UTC

Jul-8 @ 23:00 UTC

Jul-9@
03:00 UTC

Jul-9 @ 03:00 UTC

TEMPO 0823/0903 4000 BCFG

Expired

Conditions
Patches of Fog
Cloud Levels

Jul-9@
08:00 UTC

Jul-9 @ 08:00 UTC

Jul-9@
13:00 UTC

Jul-9 @ 13:00 UTC

BECMG 0908/0910 25012KT

Expired

Wind
  • 250° at 12 KTS
Cloud Levels
  • Few at 1,500' AGL

Jul-9@
13:00 UTC

Jul-9 @ 13:00 UTC

Jul-9@
19:00 UTC

Jul-9 @ 19:00 UTC

BECMG 0913/0915 31012KT

Becoming

Becoming Conditions expected by Thu, Jul 9, 2020 @ 15:00 UTC

Wind
  • 310° at 12 KTS
Cloud Levels
  • Few at 1,500' AGL

Jul-9@
19:00 UTC

Jul-9 @ 19:00 UTC

Jul-10@
00:00 UTC

Jul-10 @ 00:00 UTC

BECMG 0919/0921 VRB05KT

Becoming

Becoming Conditions expected by Thu, Jul 9, 2020 @ 21:00 UTC

Wind
  • Variable at 5 KTS
Cloud Levels
  • Few at 1,500' AGL